Time;durP1;ratioP1;P1;durP2;ratioP2;P2;SDS_P1;SDS_P2;PMS_P1;PMS_P2;Temp;Humidity;BMP_temperature;BMP_pressure;BME280_temperature;BME280_humidity;BME280_pressure;Samples;Min_cycle;Max_cycle;Signal;HPM_P1;HPM_P2
2021/12/04 00:02:05;;;;;;;;;;;;;;;17.14;59.05;100652.34;5116068;28;1467;-41
2021/12/04 00:04:34;;;;;;;;;;;;;;;17.12;58.61;100643.63;5116098;28;1086;-41
2021/12/04 00:07:01;;;;;;;;;;;;;;;17.13;59.30;100645.31;5116000;28;989;-41
2021/12/04 00:09:29;;;;;;;;;;;;;;;17.12;59.10;100665.84;5115739;28;993;-41
2021/12/04 00:11:57;;;;;;;;;;;;;;;17.19;58.75;100671.50;5115658;28;1071;-41
2021/12/04 00:14:25;;;;;;;;;;;;;;;17.15;58.66;100672.75;5115551;28;1020;-41
2021/12/04 00:16:52;;;;;;;;;;;;;;;17.14;58.64;100676.41;5115770;28;1983;-41
2021/12/04 00:19:19;;;;;;;;;;;;;;;17.15;58.98;100664.72;5115444;28;1118;-41
2021/12/04 00:21:45;;;;;;;;;;;;;;;17.17;58.58;100673.47;5115466;28;1137;-41
2021/12/04 00:24:12;;;;;;;;;;;;;;;17.15;58.95;100668.28;5115717;28;1038;-41
2021/12/04 00:26:38;;;;;;;;;;;;;;;17.15;59.02;100657.59;5115554;28;1038;-41
2021/12/04 00:29:05;;;;;;;;;;;;;;;17.22;58.35;100655.25;5115648;28;1090;-41
2021/12/04 00:31:33;;;;;;;;;;;;;;;17.20;58.80;100657.19;5115506;28;1018;-41
2021/12/04 00:33:59;;;;;;;;;;;;;;;17.22;58.30;100671.28;5115522;28;1051;-41
2021/12/04 00:36:32;;;;;;;;;;;;;;;17.21;58.80;100680.25;5115128;28;1905;-41
2021/12/04 00:49:54;;;;;;;;;;;;;;;17.19;58.54;100655.47;5115173;28;654;-41
2021/12/04 00:52:21;;;;;;;;;;;;;;;17.16;59.12;100677.13;5114814;28;1146;-41
2021/12/04 00:54:47;;;;;;;;;;;;;;;17.22;58.60;100674.78;5115546;27;1180;-41
2021/12/04 00:57:14;;;;;;;;;;;;;;;17.21;58.54;100674.91;5114672;28;1902;-41
2021/12/04 00:59:40;;;;;;;;;;;;;;;17.25;58.68;100666.53;5114732;28;1067;-41
2021/12/04 01:02:07;;;;;;;;;;;;;;;17.22;58.44;100672.13;5114883;28;1489;-41
2021/12/04 01:04:35;;;;;;;;;;;;;;;17.16;58.93;100663.75;5114402;28;1085;-41
2021/12/04 01:07:01;;;;;;;;;;;;;;;17.12;58.73;100670.34;5114821;28;1021;-41
2021/12/04 01:09:28;;;;;;;;;;;;;;;17.14;59.12;100652.34;5114548;28;1103;-41
2021/12/04 01:11:55;;;;;;;;;;;;;;;17.13;59.00;100647.97;5114817;28;1070;-41
2021/12/04 01:14:22;;;;;;;;;;;;;;;17.26;58.69;100652.19;5114491;28;1145;-41
2021/12/04 01:16:49;;;;;;;;;;;;;;;17.18;58.54;100654.63;5114601;28;1902;-41
2021/12/04 01:19:18;;;;;;;;;;;;;;;17.19;58.54;100655.47;5114655;28;1071;-41
2021/12/04 01:21:46;;;;;;;;;;;;;;;17.16;58.93;100650.41;5114655;28;1071;-41
2021/12/04 01:24:14;;;;;;;;;;;;;;;17.17;59.04;100652.09;5114298;28;1096;-41
2021/12/04 01:26:40;;;;;;;;;;;;;;;17.14;58.59;100644.34;5114288;28;1114;-41
2021/12/04 01:29:07;;;;;;;;;;;;;;;17.20;58.94;100654.53;5114495;28;1079;-41
2021/12/04 01:31:33;;;;;;;;;;;;;;;17.16;59.00;100663.75;5114230;28;1101;-41
2021/12/04 01:34:00;;;;;;;;;;;;;;;17.20;58.48;100667.88;5114468;28;1044;-41
2021/12/04 01:36:27;;;;;;;;;;;;;;;17.23;58.38;100667.59;5114366;28;1905;-41
2021/12/04 01:38:55;;;;;;;;;;;;;;;17.29;58.36;100661.78;5114075;28;1075;-41
2021/12/04 01:41:22;;;;;;;;;;;;;;;17.28;58.23;100660.91;5114336;28;1067;-41
2021/12/04 01:43:48;;;;;;;;;;;;;;;17.17;58.90;100663.66;5114281;28;1000;-41
2021/12/04 01:46:15;;;;;;;;;;;;;;;17.16;58.42;100663.75;5114335;28;1011;-41
2021/12/04 01:48:41;;;;;;;;;;;;;;;17.22;58.65;100660.59;5114001;28;1094;-41
2021/12/04 01:51:08;;;;;;;;;;;;;;;17.25;58.40;100660.34;5113976;28;1098;-41
2021/12/04 01:53:34;;;;;;;;;;;;;;;17.29;58.42;100659.97;5113819;28;1098;-41
2021/12/04 01:56:03;;;;;;;;;;;;;;;17.21;58.52;100656.19;5123701;28;1144;-41
2021/12/04 01:58:31;;;;;;;;;;;;;;;17.28;58.19;100665.41;5134639;28;1905;-41
2021/12/04 02:00:57;;;;;;;;;;;;;;;17.22;58.52;100660.59;5134633;28;1404;-41
2021/12/04 02:03:37;;;;;;;;;;;;;;;17.19;58.96;100667.03;5134367;28;1098;-41
2021/12/04 02:06:04;;;;;;;;;;;;;;;17.25;58.43;100660.34;5134472;28;1265;-41
2021/12/04 02:08:30;;;;;;;;;;;;;;;17.21;58.37;100646.38;5134584;28;1083;-41
2021/12/04 02:11:00;;;;;;;;;;;;;;;17.22;58.93;100656.09;5134615;28;1065;-41
2021/12/04 02:13:28;;;;;;;;;;;;;;;17.21;58.81;100658.88;5134289;28;1082;-41
2021/12/04 02:15:55;;;;;;;;;;;;;;;17.24;58.39;100659.47;5134714;27;1081;-41
2021/12/04 02:18:22;;;;;;;;;;;;;;;17.24;58.28;100646.13;5138289;27;1968;-41
2021/12/04 02:20:50;;;;;;;;;;;;;;;17.22;58.86;100628.53;5138302;27;1133;-41
2021/12/04 02:23:17;;;;;;;;;;;;;;;17.22;58.83;100629.34;5138648;27;1023;-41
2021/12/04 02:25:44;;;;;;;;;;;;;;;17.28;58.58;100639.53;5138508;27;1048;-41
2021/12/04 02:28:11;;;;;;;;;;;;;;;17.28;58.60;100638.69;5138558;27;1001;-41
2021/12/04 02:30:39;;;;;;;;;;;;;;;17.26;58.25;100632.63;5138156;27;1071;-41
2021/12/04 02:33:11;;;;;;;;;;;;;;;17.27;58.37;100620.97;5138422;27;1158;-41
2021/12/04 02:35:38;;;;;;;;;;;;;;;17.29;58.31;100624.38;5138414;27;999;-41
2021/12/04 02:38:06;;;;;;;;;;;;;;;17.21;58.87;100613.44;5137991;27;1905;-41
2021/12/04 02:40:32;;;;;;;;;;;;;;;17.21;58.74;100619.66;5138303;27;1076;-41
2021/12/04 02:42:59;;;;;;;;;;;;;;;17.30;58.29;100629.56;5138154;27;1043;-41
2021/12/04 02:45:25;;;;;;;;;;;;;;;17.27;58.40;100626.31;5137892;27;1174;-41
2021/12/04 02:47:51;;;;;;;;;;;;;;;17.21;58.52;100616.13;5138158;27;1068;-41
2021/12/04 02:50:18;;;;;;;;;;;;;;;17.19;59.02;100618.94;5137820;27;1339;-41
2021/12/04 02:52:45;;;;;;;;;;;;;;;17.24;58.94;100622.06;5137763;27;1162;-41
2021/12/04 02:55:13;;;;;;;;;;;;;;;17.20;58.52;100617.94;5137580;27;1296;-41
2021/12/04 02:57:43;;;;;;;;;;;;;;;17.22;58.37;100607.13;5137568;27;2352;-41
2021/12/04 03:02:39;;;;;;;;;;;;;;;17.35;58.20;100610.50;5053410;28;1329;-65
2021/12/04 03:05:08;;;;;;;;;;;;;;;17.25;58.39;100597.06;5057759;28;1065;-64
2021/12/04 03:07:34;;;;;;;;;;;;;;;17.26;58.63;100603.22;5057519;28;1091;-73
2021/12/04 03:10:00;;;;;;;;;;;;;;;17.20;58.52;100611.75;5057450;28;1056;-64
2021/12/04 03:12:28;;;;;;;;;;;;;;;17.26;58.39;100609.41;5057408;28;1071;-72
2021/12/04 03:14:55;;;;;;;;;;;;;;;17.32;58.22;100610.75;5057782;28;1488;-72
2021/12/04 03:17:23;;;;;;;;;;;;;;;17.23;58.81;100609.69;5057376;28;1975;-64
2021/12/04 03:19:51;;;;;;;;;;;;;;;17.27;58.65;100616.47;5057065;28;1024;-73
2021/12/04 03:22:19;;;;;;;;;;;;;;;17.23;58.30;100614.16;5057299;28;1037;-72
2021/12/04 03:24:45;;;;;;;;;;;;;;;17.25;58.79;100622.94;5056984;28;1060;-72
2021/12/04 03:27:13;;;;;;;;;;;;;;;17.32;58.16;100617.91;5056406;28;1126;-64
2021/12/04 03:29:44;;;;;;;;;;;;;;;17.22;59.02;100639.22;5057185;28;1034;-72
2021/12/04 03:32:34;;;;;;;;;;;;;;;17.27;58.38;100631.66;5056767;28;1016;-72
2021/12/04 03:35:21;;;;;;;;;;;;;;;17.34;58.36;100619.47;5057176;28;961;-64
2021/12/04 03:43:18;;;;;;;;;;;;;;;17.22;58.75;100607.13;5051303;28;1155;-64
2021/12/04 03:45:52;;;;;;;;;;;;;;;17.06;58.95;100619.09;5057118;28;982;-64
2021/12/04 03:48:39;;;;;;;;;;;;;;;16.90;59.22;100629.34;5057152;28;1002;-65
2021/12/04 03:51:07;;;;;;;;;;;;;;;16.90;59.47;100613.31;5057054;28;1001;-72
2021/12/04 03:53:33;;;;;;;;;;;;;;;16.88;59.16;100604.59;5056625;28;1189;-65
2021/12/04 03:56:00;;;;;;;;;;;;;;;16.99;58.91;100617.91;5056602;28;1272;-73
2021/12/04 03:58:26;;;;;;;;;;;;;;;17.04;59.41;100620.19;5056765;28;1906;-72
2021/12/04 04:00:54;;;;;;;;;;;;;;;17.12;59.08;100603.53;5055192;28;1082;-73
2021/12/04 04:03:21;;;;;;;;;;;;;;;17.10;59.17;100617.03;5056757;28;1369;-65
2021/12/04 04:05:47;;;;;;;;;;;;;;;17.11;58.77;100626.75;5056314;28;1056;-72
2021/12/04 04:08:15;;;;;;;;;;;;;;;17.06;59.26;100628.94;5056711;28;1020;-64
2021/12/04 04:10:43;;;;;;;;;;;;;;;17.06;59.17;100616.41;5056346;28;1008;-73
2021/12/04 04:13:11;;;;;;;;;;;;;;;17.07;58.99;100636.84;5056611;28;917;-65
2021/12/04 04:15:38;;;;;;;;;;;;;;;17.07;58.88;100642.19;5056207;28;1068;-72
2021/12/04 04:18:06;;;;;;;;;;;;;;;17.00;59.52;100614.25;5056164;28;1967;-64
2021/12/04 04:20:33;;;;;;;;;;;;;;;17.08;58.64;100637.66;5056478;28;1003;-65
2021/12/04 04:22:59;;;;;;;;;;;;;;;17.08;59.00;100630.50;5056417;28;955;-73
2021/12/04 04:25:25;;;;;;;;;;;;;;;17.06;58.95;100626.25;5056264;28;1000;-64
2021/12/04 04:27:52;;;;;;;;;;;;;;;17.07;58.73;100636.84;5056302;28;1001;-72
2021/12/04 04:30:19;;;;;;;;;;;;;;;17.10;58.74;100652.59;5055836;28;1094;-65
2021/12/04 04:32:47;;;;;;;;;;;;;;;17.05;58.65;100649.47;5056223;28;977;-71
2021/12/04 04:35:16;;;;;;;;;;;;;;;17.12;58.90;100659.66;5056134;28;976;-73
2021/12/04 04:37:49;;;;;;;;;;;;;;;17.09;58.82;100658.94;5055975;28;1910;-65
2021/12/04 04:57:21;;;;;;;;;;;;;;;17.07;59.04;100660.03;5055129;28;1064;-64
2021/12/04 05:11:03;;;;;;;;;;;;;;;17.10;58.88;100714.03;5055564;28;623;-65
2021/12/04 05:13:29;;;;;;;;;;;;;;;17.14;58.87;100711.13;5055119;28;1043;-73
2021/12/04 05:15:58;;;;;;;;;;;;;;;17.12;59.01;100718.44;5055432;28;1025;-64
2021/12/04 05:18:33;;;;;;;;;;;;;;;17.15;58.96;100710.16;5055230;28;1909;-72
2021/12/04 05:21:04;;;;;;;;;;;;;;;17.18;58.48;100712.59;5055061;28;1086;-64
2021/12/04 05:23:34;;;;;;;;;;;;;;;17.15;59.07;100720.84;5055281;28;1004;-64
2021/12/04 05:26:00;;;;;;;;;;;;;;;17.21;58.43;100733.69;5055161;28;1467;-64
2021/12/04 05:28:27;;;;;;;;;;;;;;;17.20;58.84;100721.31;5055174;28;1052;-65
2021/12/04 05:30:53;;;;;;;;;;;;;;;17.20;58.47;100732.84;5055148;28;1052;-64
2021/12/04 05:33:20;;;;;;;;;;;;;;;17.17;58.28;100730.44;5054721;28;1067;-73
2021/12/04 05:35:48;;;;;;;;;;;;;;;17.20;58.19;100732.00;5054809;28;1021;-65
2021/12/04 05:38:15;;;;;;;;;;;;;;;17.20;58.86;100748.88;5054721;28;1975;-72
2021/12/04 05:40:43;;;;;;;;;;;;;;;17.19;58.44;100733.84;5055005;28;1027;-72
2021/12/04 05:43:10;;;;;;;;;;;;;;;17.17;58.55;100730.44;5054725;28;1095;-64
2021/12/04 05:45:40;;;;;;;;;;;;;;;17.18;58.82;100720.59;5054960;28;980;-64
2021/12/04 05:48:10;;;;;;;;;;;;;;;17.14;58.37;100728.00;5054720;28;1103;-74
2021/12/04 05:56:24;;;;;;;;;;;;;;;17.18;58.55;100712.59;5148729;27;2342;-41
2021/12/04 05:58:50;;;;;;;;;;;;;;;17.22;58.20;100692.66;5152519;27;1102;-41
2021/12/04 06:01:18;;;;;;;;;;;;;;;17.18;58.25;100689.38;5152321;27;1370;-41
2021/12/04 06:03:44;;;;;;;;;;;;;;;17.14;58.66;100698.63;5152428;27;1125;-41
2021/12/04 06:06:11;;;;;;;;;;;;;;;17.09;58.54;100699.00;5152224;27;1211;-41
2021/12/04 06:08:39;;;;;;;;;;;;;;;17.17;58.16;100701.06;5152282;27;1082;-41
2021/12/04 06:11:06;;;;;;;;;;;;;;;17.23;58.35;100705.03;5152258;27;1051;-41
2021/12/04 06:13:32;;;;;;;;;;;;;;;17.26;58.41;100710.97;5152443;27;1901;-41
2021/12/04 06:15:59;;;;;;;;;;;;;;;17.21;58.12;100697.16;5152166;27;1070;-41
2021/12/04 06:18:25;;;;;;;;;;;;;;;17.19;58.67;100692.88;5152344;27;1083;-41
2021/12/04 06:23:36;;;;;;;;;;;;;;;17.17;58.38;100702.84;5152738;27;733;-41
2021/12/04 06:26:06;;;;;;;;;;;;;;;17.15;58.42;100720.84;5152221;27;1004;-41
2021/12/04 06:28:32;;;;;;;;;;;;;;;17.19;58.33;100722.28;5152175;27;982;-41
2021/12/04 06:31:00;;;;;;;;;;;;;;;17.14;58.48;100720.00;5152142;27;1004;-41
2021/12/04 06:33:27;;;;;;;;;;;;;;;17.22;58.62;100722.88;5152084;27;1906;-41
2021/12/04 06:35:53;;;;;;;;;;;;;;;17.23;58.59;100715.72;5152098;27;1075;-41
2021/12/04 06:38:20;;;;;;;;;;;;;;;17.18;58.39;100717.94;5151716;27;1177;-41
2021/12/04 06:40:48;;;;;;;;;;;;;;;17.24;58.29;100717.44;5151638;27;1087;-41
2021/12/04 06:43:16;;;;;;;;;;;;;;;17.20;58.20;100740.88;5151919;27;1080;-41
2021/12/04 06:45:44;;;;;;;;;;;;;;;17.22;58.00;100735.41;5151637;27;1122;-41
2021/12/04 06:48:14;;;;;;;;;;;;;;;17.19;58.42;100717.81;5151623;27;1126;-41
2021/12/04 06:50:44;;;;;;;;;;;;;;;17.19;58.39;100714.28;5151823;27;1089;-41
2021/12/04 06:53:21;;;;;;;;;;;;;;;17.21;58.31;100720.34;5151025;27;1902;-41
2021/12/04 06:55:50;;;;;;;;;;;;;;;17.21;58.17;100733.69;5151409;27;1066;-41
2021/12/04 06:58:18;;;;;;;;;;;;;;;17.19;58.42;100749.88;5151363;27;1066;-41
2021/12/04 07:00:44;;;;;;;;;;;;;;;17.26;58.27;100742.19;5151518;27;1472;-42
2021/12/04 07:03:11;;;;;;;;;;;;;;;17.29;58.28;100758.84;5147315;27;1149;-41
2021/12/04 07:05:37;;;;;;;;;;;;;;;17.12;58.86;100769.19;5138015;27;1076;-41
2021/12/04 07:08:05;;;;;;;;;;;;;;;17.10;58.56;100758.63;5137668;27;1065;-41
2021/12/04 07:10:31;;;;;;;;;;;;;;;17.14;58.33;100769.91;5137332;27;1073;-41
2021/12/04 07:12:58;;;;;;;;;;;;;;;17.13;58.70;100747.72;5137505;27;1905;-41
2021/12/04 07:15:28;;;;;;;;;;;;;;;17.13;58.45;100749.50;5137522;27;1002;-41
2021/12/04 07:17:54;;;;;;;;;;;;;;;17.14;58.46;100732.50;5137390;27;1060;-41
2021/12/04 07:20:21;;;;;;;;;;;;;;;17.18;58.35;100741.97;5138226;27;1069;-41
2021/12/04 07:22:47;;;;;;;;;;;;;;;17.16;58.20;100734.09;5137339;27;1128;-41
2021/12/04 07:25:14;;;;;;;;;;;;;;;17.22;58.35;100746.09;5137347;27;1004;-41
2021/12/04 07:27:40;;;;;;;;;;;;;;;17.22;58.28;100743.44;5137289;27;1042;-41
2021/12/04 07:30:07;;;;;;;;;;;;;;;17.22;58.22;100746.09;5137412;27;1080;-41
2021/12/04 07:32:36;;;;;;;;;;;;;;;17.20;58.53;100742.72;5137038;27;1980;-41
2021/12/04 07:35:02;;;;;;;;;;;;;;;17.24;58.59;100744.16;5137189;27;982;-41
2021/12/04 07:37:29;;;;;;;;;;;;;;;17.22;58.35;100757.63;5137184;27;1092;-41
2021/12/04 07:39:56;;;;;;;;;;;;;;;17.21;58.42;100755.06;5137044;27;1038;-41
2021/12/04 07:42:22;;;;;;;;;;;;;;;17.21;58.33;100753.28;5137037;27;1250;-41
2021/12/04 07:44:48;;;;;;;;;;;;;;;17.17;58.21;100741.13;5136617;27;1110;-41
2021/12/04 07:47:15;;;;;;;;;;;;;;;17.25;58.28;100751.22;5136919;27;1080;-41
2021/12/04 07:49:43;;;;;;;;;;;;;;;17.21;58.12;100745.25;5137620;27;994;-41
2021/12/04 07:52:10;;;;;;;;;;;;;;;17.26;58.06;100732.34;5136270;27;1910;-41
2021/12/04 07:54:37;;;;;;;;;;;;;;;17.20;58.21;100722.16;5136628;27;1097;-41
2021/12/04 07:57:04;;;;;;;;;;;;;;;17.20;58.32;100722.16;5136448;27;1280;-41
2021/12/04 07:59:30;;;;;;;;;;;;;;;17.24;58.33;100718.28;5137398;27;1049;-41
2021/12/04 08:01:57;;;;;;;;;;;;;;;17.26;58.45;100723.50;5136513;27;1390;-41
2021/12/04 08:04:24;;;;;;;;;;;;;;;17.22;58.24;100714.03;5136265;27;1150;-41
2021/12/04 08:06:52;;;;;;;;;;;;;;;17.26;58.05;100713.66;5136414;27;1010;-41
2021/12/04 08:09:18;;;;;;;;;;;;;;;17.27;57.83;100719.88;5136141;27;1098;-41
2021/12/04 08:11:46;;;;;;;;;;;;;;;17.24;58.06;100720.09;5136580;27;996;-41
2021/12/04 08:14:12;;;;;;;;;;;;;;;17.25;58.27;100737.84;5136078;27;1078;-41
2021/12/04 08:16:39;;;;;;;;;;;;;;;17.25;58.39;100741.38;5135142;27;1099;-41
2021/12/04 08:19:05;;;;;;;;;;;;;;;17.24;58.28;100738.81;5136862;27;1001;-41
2021/12/04 08:21:32;;;;;;;;;;;;;;;17.22;58.31;100703.34;5135921;27;1074;-41
2021/12/04 08:24:00;;;;;;;;;;;;;;;17.31;58.26;100694.59;5135844;27;1017;-41
2021/12/04 08:26:27;;;;;;;;;;;;;;;17.25;58.58;100692.41;5135900;27;1932;-41
2021/12/04 08:28:53;;;;;;;;;;;;;;;17.28;58.09;100673.44;5136104;27;1093;-41
2021/12/04 08:31:20;;;;;;;;;;;;;;;17.31;58.19;100673.19;5135673;27;1106;-41
2021/12/04 08:33:46;;;;;;;;;;;;;;;17.21;58.32;100670.44;5135576;27;1905;-41
2021/12/04 08:36:13;;;;;;;;;;;;;;;17.20;58.53;100660.69;5135963;27;989;-41
2021/12/04 08:38:42;;;;;;;;;;;;;;;17.22;58.56;100647.22;5136049;27;964;-41
2021/12/04 08:41:10;;;;;;;;;;;;;;;17.24;58.10;100662.16;5135825;27;1088;-41
2021/12/04 08:43:36;;;;;;;;;;;;;;;17.22;58.43;100649.91;5135462;27;1162;-41
2021/12/04 08:46:03;;;;;;;;;;;;;;;17.18;58.44;100661.81;5135464;27;1102;-41
2021/12/04 08:48:31;;;;;;;;;;;;;;;17.27;58.02;100663.75;5135727;27;1084;-41
2021/12/04 08:50:59;;;;;;;;;;;;;;;17.33;57.90;100679.28;5135666;27;1015;-41
2021/12/04 08:53:25;;;;;;;;;;;;;;;17.25;58.04;100671.88;5134886;27;1984;-41
2021/12/04 08:55:52;;;;;;;;;;;;;;;17.29;58.26;100672.47;5135223;27;1094;-41
2021/12/04 08:58:20;;;;;;;;;;;;;;;17.27;58.17;100685.97;5135568;27;1087;-41
2021/12/04 09:00:49;;;;;;;;;;;;;;;17.27;58.15;100669.94;5135680;27;1345;-41
2021/12/04 09:03:16;;;;;;;;;;;;;;;17.29;58.00;100670.66;5135123;27;1134;-41
2021/12/04 09:05:43;;;;;;;;;;;;;;;17.39;57.65;100670.75;5134644;27;1074;-41
2021/12/04 09:08:09;;;;;;;;;;;;;;;17.35;58.05;100684.47;5135333;27;1002;-41
2021/12/04 09:10:40;;;;;;;;;;;;;;;17.26;58.50;100672.72;5135325;27;1045;-41
2021/12/04 09:13:07;;;;;;;;;;;;;;;17.30;58.28;100680.34;5134884;27;1902;-41
2021/12/04 09:15:36;;;;;;;;;;;;;;;17.26;58.45;100678.06;5135237;27;1062;-41
2021/12/04 09:18:03;;;;;;;;;;;;;;;17.29;58.45;100685.84;5134810;27;1024;-41
2021/12/04 09:20:31;;;;;;;;;;;;;;;17.29;58.47;100681.34;5134858;27;1099;-41
2021/12/04 09:22:58;;;;;;;;;;;;;;;17.35;58.35;100682.66;5134812;27;1086;-41
2021/12/04 09:25:26;;;;;;;;;;;;;;;17.33;58.22;100673.94;5134746;27;1274;-41
2021/12/04 09:28:07;;;;;;;;;;;;;;;17.33;58.20;100681.94;5134474;27;1070;-41
2021/12/04 09:30:52;;;;;;;;;;;;;;;17.28;58.14;100671.59;5134617;27;1133;-41
2021/12/04 10:12:38;;;;;;;;;;;;;;;17.32;58.28;100664.19;5097312;28;1990;-41
2021/12/04 10:18:05;;;;;;;;;;;;;;;17.31;58.63;100659.84;5134130;28;852;-41
2021/12/04 10:20:42;;;;;;;;;;;;;;;17.35;57.98;100660.41;5135066;28;1931;-41
2021/12/04 10:23:25;;;;;;;;;;;;;;;17.40;57.94;100658.22;5134504;28;1192;-41
2021/12/04 10:34:04;;;;;;;;;;;;;;;17.04;58.87;100669.13;5134268;28;1909;-41
2021/12/04 10:36:33;;;;;;;;;;;;;;;17.21;58.87;100664.22;5134364;28;1010;-41
2021/12/04 10:39:01;;;;;;;;;;;;;;;17.26;58.77;100644.16;5135616;27;1129;-41
2021/12/04 10:41:31;;;;;;;;;;;;;;;17.28;58.12;100649.38;5137874;27;1176;-41
2021/12/04 10:44:08;;;;;;;;;;;;;;;17.26;58.64;100648.66;5138104;27;1001;-41
2021/12/04 10:46:34;;;;;;;;;;;;;;;17.29;58.60;100651.09;5137804;27;1102;-41
2021/12/04 10:49:04;;;;;;;;;;;;;;;17.27;58.70;100631.66;5137757;27;1058;-41
2021/12/04 10:51:45;;;;;;;;;;;;;;;17.27;58.31;100623.66;5138039;27;1061;-41
2021/12/04 10:54:23;;;;;;;;;;;;;;;17.22;58.32;100623.19;5117457;28;1979;-41
2021/12/04 10:57:02;;;;;;;;;;;;;;;17.26;58.27;100619.28;5117045;28;2015;-41
2021/12/04 10:59:39;;;;;;;;;;;;;;;17.23;58.37;100636.41;5117342;28;1018;-41
2021/12/04 11:02:14;;;;;;;;;;;;;;;17.28;58.90;100636.03;5116870;28;1422;-41
2021/12/04 11:04:45;;;;;;;;;;;;;;;17.36;58.08;100628.22;5117202;28;995;-41
2021/12/04 11:07:37;;;;;;;;;;;;;;;17.33;58.15;100614.25;5116808;28;1062;-41
2021/12/04 11:21:32;;;;;;;;;;;;;;;17.36;57.96;100609.50;5116842;28;745;-41
2021/12/04 11:38:34;;;;;;;;;;;;;;;17.28;58.23;100579.91;5116417;28;1453;-41
2021/12/04 11:44:00;;;;;;;;;;;;;;;17.34;58.03;100584.72;5116630;28;911;-41
2021/12/04 11:46:40;;;;;;;;;;;;;;;17.38;57.84;100598.69;5116399;28;1076;-41
2021/12/04 11:49:10;;;;;;;;;;;;;;;17.25;58.43;100597.06;5116244;28;1084;-41
2021/12/04 11:51:45;;;;;;;;;;;;;;;17.35;58.11;100597.13;5116262;28;1055;-41
2021/12/04 11:54:12;;;;;;;;;;;;;;;17.35;58.09;100597.13;5136056;27;1925;-41
2021/12/04 11:56:40;;;;;;;;;;;;;;;17.38;58.18;100604.88;5136747;27;1047;-41
2021/12/04 11:59:07;;;;;;;;;;;;;;;17.40;57.94;100597.56;5136401;27;1137;-41
2021/12/04 12:01:34;;;;;;;;;;;;;;;17.36;57.92;100598.81;5136207;27;1398;-41
2021/12/04 12:04:02;;;;;;;;;;;;;;;17.40;58.22;100592.22;5136329;27;1176;-41
2021/12/04 12:06:31;;;;;;;;;;;;;;;17.20;58.33;100598.41;5136141;27;1091;-41
2021/12/04 12:09:02;;;;;;;;;;;;;;;17.13;58.74;100598.06;5136532;27;1073;-41
2021/12/04 12:11:28;;;;;;;;;;;;;;;17.13;58.82;100608.75;5136452;27;1071;-41
2021/12/04 12:13:59;;;;;;;;;;;;;;;17.07;58.53;100609.28;5136041;27;1905;-41
2021/12/04 12:16:28;;;;;;;;;;;;;;;17.21;58.17;100600.09;5136076;27;1082;-41
2021/12/04 12:18:57;;;;;;;;;;;;;;;17.29;58.73;100613.69;5136269;27;996;-41
2021/12/04 12:21:27;;;;;;;;;;;;;;;17.30;57.93;100612.69;5136005;27;1131;-41
2021/12/04 12:26:54;;;;;;;;;;;;;;;17.35;58.13;100607.81;5136228;27;744;-41
2021/12/04 12:32:51;;;;;;;;;;;;;;;17.32;58.22;100602.72;5136127;27;653;-41
2021/12/04 12:38:29;;;;;;;;;;;;;;;17.10;59.28;100606.34;5135779;27;732;-41
2021/12/04 12:41:00;;;;;;;;;;;;;;;17.09;58.90;100616.19;5135649;27;2073;-41
2021/12/04 12:43:34;;;;;;;;;;;;;;;17.10;58.83;100615.19;5135859;27;1037;-41
2021/12/04 12:46:02;;;;;;;;;;;;;;;17.20;58.76;100614.44;5135774;27;986;-41
2021/12/04 12:48:28;;;;;;;;;;;;;;;17.31;58.43;100617.06;5135716;27;1019;-41
2021/12/04 12:51:05;;;;;;;;;;;;;;;17.29;59.06;100627.03;5135414;27;1123;-41
2021/12/04 12:53:39;;;;;;;;;;;;;;;17.34;58.53;100616.81;5134812;27;1983;-41
2021/12/04 12:56:07;;;;;;;;;;;;;;;17.32;58.99;100610.75;5135561;27;1055;-41
2021/12/04 12:58:41;;;;;;;;;;;;;;;17.40;58.08;100618.13;5135595;27;1088;-41
2021/12/04 13:12:09;;;;;;;;;;;;;;;17.39;58.16;100608.38;5135165;27;658;-41
2021/12/04 13:14:37;;;;;;;;;;;;;;;17.35;58.28;100609.63;5135207;27;1915;-41
2021/12/04 13:17:07;;;;;;;;;;;;;;;17.21;58.43;100606.31;5135258;27;1026;-41
2021/12/04 13:19:36;;;;;;;;;;;;;;;17.41;57.93;100601.97;5134830;27;1126;-41
2021/12/04 13:22:04;;;;;;;;;;;;;;;17.61;57.60;100596.75;5134768;27;1002;-42
2021/12/04 13:24:33;;;;;;;;;;;;;;;17.70;57.38;100595.94;5133048;27;1098;-42
2021/12/04 13:29:38;;;;;;;;;;;;;;;17.91;57.79;100603.16;5117290;27;1808;-41
2021/12/04 13:32:10;;;;;;;;;;;;;;;17.99;57.60;100598.84;5124650;27;1685;-42
2021/12/04 13:34:44;;;;;;;;;;;;;;;17.94;57.42;100597.53;5123316;27;1949;-44
2021/12/04 13:37:12;;;;;;;;;;;;;;;18.06;57.01;100601.81;5114002;27;1682;-41
2021/12/04 13:39:40;;;;;;;;;;;;;;;18.12;56.45;100608.47;5126001;27;1706;-41
2021/12/04 13:42:09;;;;;;;;;;;;;;;18.01;56.83;100612.09;5117447;27;1591;-45
2021/12/04 13:44:36;;;;;;;;;;;;;;;18.15;56.46;100605.53;5122809;27;1558;-42
2021/12/04 13:47:06;;;;;;;;;;;;;;;18.21;57.48;100596.97;5114591;28;1550;-41
2021/12/04 13:49:39;;;;;;;;;;;;;;;18.23;57.39;100600.34;5122029;28;1996;-42
2021/12/04 13:52:09;;;;;;;;;;;;;;;18.22;57.30;100609.34;5114069;28;1752;-42
2021/12/04 13:54:43;;;;;;;;;;;;;;;18.31;56.61;100594.34;5093840;28;2026;-42
2021/12/04 13:57:12;;;;;;;;;;;;;;;18.59;55.71;100598.94;5093139;28;2803;-42
2021/12/04 13:59:40;;;;;;;;;;;;;;;18.79;55.42;100601.66;5098484;28;1068;-42
2021/12/04 14:02:09;;;;;;;;;;;;;;;18.77;55.32;100595.59;5104034;28;1906;-42
2021/12/04 14:04:39;;;;;;;;;;;;;;;18.61;55.23;100588.91;5095010;28;1661;-42
2021/12/04 14:07:08;;;;;;;;;;;;;;;18.64;55.14;100585.97;5102380;28;1747;-43
2021/12/04 14:09:48;;;;;;;;;;;;;;;18.78;55.29;100581.19;5093392;28;1798;-43
2021/12/04 14:12:15;;;;;;;;;;;;;;;18.90;55.06;100579.28;5104433;28;1557;-43
2021/12/04 14:14:44;;;;;;;;;;;;;;;18.97;55.18;100570.53;5100892;28;1910;-43
2021/12/04 14:17:13;;;;;;;;;;;;;;;18.92;55.25;100561.22;5116903;28;1053;-43
2021/12/04 14:19:51;;;;;;;;;;;;;;;18.95;55.75;100579.72;5109397;28;1444;-43
2021/12/04 14:22:20;;;;;;;;;;;;;;;18.97;55.00;100570.53;5112304;28;1652;-43
2021/12/04 14:25:01;;;;;;;;;;;;;;;18.95;56.27;100585.91;5098596;28;1520;-43
2021/12/04 14:27:32;;;;;;;;;;;;;;;18.79;56.16;100593.63;5108043;28;1697;-43
2021/12/04 14:30:00;;;;;;;;;;;;;;;18.69;56.19;100598.94;5109472;28;1643;-43
2021/12/04 14:32:33;;;;;;;;;;;;;;;18.63;56.65;100597.66;5104190;28;1522;-43
2021/12/04 14:35:03;;;;;;;;;;;;;;;18.56;56.27;100599.22;5098435;28;1914;-43
2021/12/04 14:37:42;;;;;;;;;;;;;;;18.38;56.95;100584.75;5111919;28;1715;-43
2021/12/04 14:40:11;;;;;;;;;;;;;;;18.31;57.07;100599.69;5104616;28;1689;-43
2021/12/04 14:42:45;;;;;;;;;;;;;;;18.28;56.98;100601.66;5110648;28;1826;-43
2021/12/04 14:45:16;;;;;;;;;;;;;;;18.23;57.02;100598.53;5101976;28;1531;-43
2021/12/04 14:47:45;;;;;;;;;;;;;;;18.29;57.45;100603.34;5105245;28;1814;-43
2021/12/04 14:50:16;;;;;;;;;;;;;;;18.22;57.13;100599.53;5105691;28;1516;-43
2021/12/04 14:52:48;;;;;;;;;;;;;;;18.24;57.42;100589.53;5104856;27;1843;-43
2021/12/04 14:55:24;;;;;;;;;;;;;;;18.22;57.35;100585.25;5116013;28;1978;-42
2021/12/04 14:57:52;;;;;;;;;;;;;;;18.20;57.82;100592.59;5121434;27;1765;-43
2021/12/04 15:00:23;;;;;;;;;;;;;;;18.14;57.71;100588.59;5125245;27;1675;-43
2021/12/04 15:02:51;;;;;;;;;;;;;;;18.14;57.91;100583.25;5119944;27;1621;-43
2021/12/04 15:05:34;;;;;;;;;;;;;;;18.18;57.69;100571.31;5130471;27;2109;-43
2021/12/04 15:08:17;;;;;;;;;;;;;;;18.16;58.15;100577.78;5127808;27;1550;-43
2021/12/04 15:10:48;;;;;;;;;;;;;;;18.16;57.96;100575.09;5123175;27;1726;-43
2021/12/04 15:13:20;;;;;;;;;;;;;;;18.19;57.83;100580.19;5129136;27;1680;-43
2021/12/04 15:16:00;;;;;;;;;;;;;;;18.20;57.83;100577.38;5127036;27;1905;-43
2021/12/04 15:18:33;;;;;;;;;;;;;;;18.26;58.06;100581.34;5117210;27;1919;-44
2021/12/04 15:21:01;;;;;;;;;;;;;;;18.36;57.21;100584.06;5118024;27;1807;-43
2021/12/04 15:23:45;;;;;;;;;;;;;;;18.37;57.66;100583.09;5119839;27;1953;-43
2021/12/04 15:26:15;;;;;;;;;;;;;;;18.16;58.08;100585.81;5117165;27;1703;-42
2021/12/04 15:28:45;;;;;;;;;;;;;;;18.23;58.27;100582.47;5123382;27;1857;-43
2021/12/04 15:31:12;;;;;;;;;;;;;;;18.20;58.28;100576.53;5121378;27;1831;-43
2021/12/04 15:33:52;;;;;;;;;;;;;;;18.17;58.51;100583.00;5119501;27;1975;-43
2021/12/04 15:36:38;;;;;;;;;;;;;;;18.22;58.17;100580.78;5118635;27;1495;-43